Time;durP1;ratioP1;P1;durP2;ratioP2;P2;SDS_P1;SDS_P2;PMS_P1;PMS_P2;Temp;Humidity;BMP_temperature;BMP_pressure;BME280_temperature;BME280_humidity;BME280_pressure;Samples;Min_cycle;Max_cycle;Signal;HPM_P1;HPM_P2
2023/09/29 00:01:03;;;;;;;654.95;137.43;;;;;;;;;;5043002;28;20020;-57
2023/09/29 00:03:28;;;;;;;653.35;138.48;;;;;;;;;;5025727;28;20032;-58
2023/09/29 00:05:53;;;;;;;651.05;135.27;;;;;;;;;;5041565;28;20460;-56
2023/09/29 00:08:22;;;;;;;655.22;140.40;;;;;;;;;;5041442;28;20024;-59
2023/09/29 00:10:47;;;;;;;654.88;138.32;;;;;;;;;;5043648;28;20068;-58
2023/09/29 00:13:13;;;;;;;652.45;140.02;;;;;;;;;;5040036;28;20029;-60
2023/09/29 00:15:38;;;;;;;656.38;136.32;;;;;;;;;;5043963;28;20356;-57
2023/09/29 00:18:05;;;;;;;652.22;137.00;;;;;;;;;;5042324;28;20103;-58
2023/09/29 00:20:30;;;;;;;651.00;137.65;;;;;;;;;;5042599;28;20033;-59
2023/09/29 00:22:57;;;;;;;652.60;135.27;;;;;;;;;;5042387;28;20024;-55
2023/09/29 00:25:25;;;;;;;655.88;137.93;;;;;;;;;;5000633;28;20030;-59
2023/09/29 00:27:51;;;;;;;654.63;133.70;;;;;;;;;;4999292;28;20082;-54
2023/09/29 00:30:17;;;;;;;652.33;135.10;;;;;;;;;;5000749;28;20045;-58
2023/09/29 00:32:46;;;;;;;652.25;135.25;;;;;;;;;;4997968;28;20028;-58
2023/09/29 00:35:12;;;;;;;650.33;133.13;;;;;;;;;;4999223;28;20398;-59
2023/09/29 00:37:37;;;;;;;647.58;131.63;;;;;;;;;;4998604;28;20701;-55
2023/09/29 00:40:11;;;;;;;653.38;135.68;;;;;;;;;;5000844;28;20044;-60
2023/09/29 00:42:36;;;;;;;651.17;135.90;;;;;;;;;;4999070;28;20503;-59
2023/09/29 00:45:03;;;;;;;650.83;137.93;;;;;;;;;;5000477;28;20045;-59
2023/09/29 00:47:29;;;;;;;646.72;137.80;;;;;;;;;;4997300;28;20137;-58
2023/09/29 00:49:54;;;;;;;646.63;133.65;;;;;;;;;;5000303;28;20475;-58
2023/09/29 00:52:23;;;;;;;643.65;132.05;;;;;;;;;;4997586;28;20034;-56
2023/09/29 00:54:50;;;;;;;648.57;134.80;;;;;;;;;;4999169;28;20037;-56
2023/09/29 00:57:16;;;;;;;643.17;132.70;;;;;;;;;;5034492;28;20277;-58
2023/09/29 00:59:41;;;;;;;654.28;133.68;;;;;;;;;;5042850;28;20017;-57
2023/09/29 01:02:09;;;;;;;647.72;133.75;;;;;;;;;;5039916;28;20446;-60
2023/09/29 01:04:34;;;;;;;652.05;134.98;;;;;;;;;;5041415;28;20025;-60
2023/09/29 01:07:00;;;;;;;646.70;133.60;;;;;;;;;;5041280;28;20075;-60
2023/09/29 01:09:25;;;;;;;644.47;132.15;;;;;;;;;;5023109;28;20501;-55
2023/09/29 01:11:52;;;;;;;644.63;132.40;;;;;;;;;;5041048;28;20059;-58
2023/09/29 01:14:17;;;;;;;648.08;130.52;;;;;;;;;;5042709;28;20021;-57
2023/09/29 01:16:43;;;;;;;643.20;129.50;;;;;;;;;;5040751;28;20021;-59
2023/09/29 01:19:18;;;;;;;646.45;130.27;;;;;;;;;;5040817;28;20028;-58
2023/09/29 01:21:46;;;;;;;648.63;134.50;;;;;;;;;;5038959;28;20381;-58
2023/09/29 01:24:11;;;;;;;643.75;131.55;;;;;;;;;;5040683;28;20029;-52
2023/09/29 01:26:37;;;;;;;642.83;129.52;;;;;;;;;;5039695;28;20025;-60
2023/09/29 01:29:03;;;;;;;645.70;129.57;;;;;;;;;;5039912;28;20497;-55
2023/09/29 01:31:28;;;;;;;648.33;132.52;;;;;;;;;;5040277;28;20044;-59
2023/09/29 01:33:54;;;;;;;644.15;133.30;;;;;;;;;;5041989;28;20454;-59
2023/09/29 01:36:20;;;;;;;642.90;131.30;;;;;;;;;;5040532;28;20100;-59
2023/09/29 01:38:45;;;;;;;642.47;130.63;;;;;;;;;;5024415;28;20480;-58
2023/09/29 01:41:11;;;;;;;644.63;133.00;;;;;;;;;;5039670;28;20044;-60
2023/09/29 01:43:36;;;;;;;641.25;131.15;;;;;;;;;;5040755;28;20021;-57
2023/09/29 01:46:01;;;;;;;646.03;130.15;;;;;;;;;;5041088;28;20521;-56
2023/09/29 01:48:26;;;;;;;646.30;133.57;;;;;;;;;;5040913;28;20029;-59
2023/09/29 01:50:52;;;;;;;647.30;131.95;;;;;;;;;;5041662;28;20113;-54
2023/09/29 01:53:17;;;;;;;641.65;132.38;;;;;;;;;;5040037;28;20461;-55
2023/09/29 01:55:42;;;;;;;640.13;131.68;;;;;;;;;;5041967;28;20013;-59
2023/09/29 01:58:08;;;;;;;646.88;133.23;;;;;;;;;;5039840;28;20481;-59
2023/09/29 02:00:34;;;;;;;641.38;133.30;;;;;;;;;;5041646;28;20295;-57
2023/09/29 02:03:00;;;;;;;645.78;132.20;;;;;;;;;;5038174;28;20256;-57
2023/09/29 02:05:26;;;;;;;644.42;135.52;;;;;;;;;;5041456;28;20056;-58
2023/09/29 02:07:51;;;;;;;642.85;132.10;;;;;;;;;;5039452;28;20425;-56
2023/09/29 02:10:20;;;;;;;639.50;130.02;;;;;;;;;;5024161;28;20025;-56
2023/09/29 02:12:53;;;;;;;449.83;93.65;;;;;;;;;;5034487;28;20761;-59
2023/09/29 02:15:18;;;;;;;642.53;130.25;;;;;;;;;;5039017;28;20555;-59
2023/09/29 02:17:44;;;;;;;644.17;131.25;;;;;;;;;;5024207;28;20060;-60
2023/09/29 02:20:13;;;;;;;646.90;132.93;;;;;;;;;;5041850;28;20148;-58
2023/09/29 02:22:39;;;;;;;643.67;131.65;;;;;;;;;;5024884;28;20017;-59
2023/09/29 02:25:05;;;;;;;647.13;133.30;;;;;;;;;;5041898;28;20460;-59
2023/09/29 02:27:30;;;;;;;649.20;135.40;;;;;;;;;;5041499;28;20479;-56
2023/09/29 02:29:55;;;;;;;644.42;136.98;;;;;;;;;;5041521;28;20029;-59
2023/09/29 02:32:22;;;;;;;648.47;132.32;;;;;;;;;;5041614;28;20481;-55
2023/09/29 02:34:47;;;;;;;643.92;132.25;;;;;;;;;;5040880;28;20353;-56
2023/09/29 02:37:12;;;;;;;644.47;128.73;;;;;;;;;;5023171;28;20047;-57
2023/09/29 02:39:37;;;;;;;643.40;135.63;;;;;;;;;;5023035;28;20459;-59
2023/09/29 02:42:03;;;;;;;643.97;130.85;;;;;;;;;;5041161;28;20024;-58
2023/09/29 02:44:33;;;;;;;643.15;133.38;;;;;;;;;;5039779;28;20028;-56
2023/09/29 02:46:58;;;;;;;645.15;130.85;;;;;;;;;;5022047;28;20525;-55
2023/09/29 02:49:23;;;;;;;647.55;136.90;;;;;;;;;;5040757;28;20021;-58
2023/09/29 02:51:49;;;;;;;648.45;131.68;;;;;;;;;;5039224;28;20036;-60
2023/09/29 02:54:14;;;;;;;642.03;129.63;;;;;;;;;;5041169;28;20017;-60
2023/09/29 02:56:40;;;;;;;640.83;128.93;;;;;;;;;;5039190;28;20386;-54
2023/09/29 02:59:05;;;;;;;641.45;131.63;;;;;;;;;;5041086;28;20021;-57
2023/09/29 03:01:31;;;;;;;641.00;133.68;;;;;;;;;;5002011;28;20375;-59
2023/09/29 03:03:58;;;;;;;638.17;128.85;;;;;;;;;;5039561;28;20025;-59
2023/09/29 03:06:24;;;;;;;643.28;132.30;;;;;;;;;;5039256;28;20056;-59
2023/09/29 03:08:54;;;;;;;643.47;130.32;;;;;;;;;;5040914;28;20458;-58
2023/09/29 03:11:22;;;;;;;643.78;130.52;;;;;;;;;;5041034;28;20482;-60
2023/09/29 03:13:48;;;;;;;641.95;129.15;;;;;;;;;;5040782;28;20060;-58
2023/09/29 03:16:13;;;;;;;645.58;129.98;;;;;;;;;;5022941;28;20041;-60
2023/09/29 03:18:39;;;;;;;646.45;130.82;;;;;;;;;;5040368;28;20035;-58
2023/09/29 03:21:04;;;;;;;642.92;130.23;;;;;;;;;;5040815;28;20433;-58
2023/09/29 03:23:33;;;;;;;639.42;129.43;;;;;;;;;;5039349;28;20364;-60
2023/09/29 03:25:59;;;;;;;638.22;126.03;;;;;;;;;;4988401;28;20064;-58
2023/09/29 03:28:24;;;;;;;640.20;128.23;;;;;;;;;;5042530;28;20531;-59
2023/09/29 03:30:49;;;;;;;635.72;124.55;;;;;;;;;;5045986;28;20687;-57
2023/09/29 03:33:15;;;;;;;619.05;124.28;;;;;;;;;;5044764;28;20032;-59
2023/09/29 03:35:40;;;;;;;432.52;92.30;;;;;;;;;;5047640;28;20058;-57
2023/09/29 03:38:05;;;;;;;603.67;124.25;;;;;;;;;;5045713;28;20048;-60
2023/09/29 03:40:31;;;;;;;412.92;88.68;;;;;;;;;;5047935;28;20382;-58
2023/09/29 03:42:57;;;;;;;615.17;127.13;;;;;;;;;;5046209;28;20120;-60
2023/09/29 03:45:23;;;;;;;621.83;125.30;;;;;;;;;;5046319;28;20416;-59
2023/09/29 03:47:48;;;;;;;608.28;124.75;;;;;;;;;;5047269;28;20017;-58
2023/09/29 03:50:13;;;;;;;413.55;85.82;;;;;;;;;;5047569;28;20033;-55
2023/09/29 03:52:39;;;;;;;610.03;122.20;;;;;;;;;;5047671;28;20466;-56
2023/09/29 03:55:06;;;;;;;403.85;83.95;;;;;;;;;;5047940;28;20067;-60
2023/09/29 03:57:32;;;;;;;612.97;121.65;;;;;;;;;;5029622;28;20029;-58
2023/09/29 03:59:57;;;;;;;402.02;84.07;;;;;;;;;;5047611;28;20501;-58
2023/09/29 04:02:22;;;;;;;606.33;119.85;;;;;;;;;;5045916;28;20083;-58
2023/09/29 04:04:48;;;;;;;609.25;122.35;;;;;;;;;;5046097;28;20061;-57
2023/09/29 04:07:14;;;;;;;606.00;123.50;;;;;;;;;;5045140;28;20044;-59
2023/09/29 04:09:39;;;;;;;604.83;122.30;;;;;;;;;;5045436;28;20017;-59
2023/09/29 04:12:05;;;;;;;611.22;121.47;;;;;;;;;;5028243;28;20485;-58
2023/09/29 04:14:30;;;;;;;419.10;87.55;;;;;;;;;;5045285;28;20757;-57
2023/09/29 04:16:55;;;;;;;609.88;120.90;;;;;;;;;;5045280;28;20517;-59
2023/09/29 04:19:20;;;;;;;606.75;122.35;;;;;;;;;;5047341;28;20039;-57
2023/09/29 04:21:46;;;;;;;422.10;87.25;;;;;;;;;;5045103;28;20539;-59
2023/09/29 04:24:11;;;;;;;605.47;120.32;;;;;;;;;;5047036;28;20032;-55
2023/09/29 04:26:36;;;;;;;613.42;121.47;;;;;;;;;;5047189;28;20017;-59
2023/09/29 04:29:02;;;;;;;626.03;121.07;;;;;;;;;;5046544;28;20028;-58
2023/09/29 04:31:27;;;;;;;632.53;122.22;;;;;;;;;;5025437;28;20383;-54
2023/09/29 04:33:52;;;;;;;624.22;120.82;;;;;;;;;;5043250;28;20063;-60
2023/09/29 04:36:17;;;;;;;631.03;123.90;;;;;;;;;;5040945;28;20028;-60
2023/09/29 04:38:43;;;;;;;626.42;122.63;;;;;;;;;;5045192;28;20413;-59
2023/09/29 04:41:08;;;;;;;638.70;124.82;;;;;;;;;;5045387;28;20040;-57
2023/09/29 04:43:34;;;;;;;629.58;122.55;;;;;;;;;;5045991;28;20382;-60
2023/09/29 04:45:59;;;;;;;630.08;123.35;;;;;;;;;;5045114;28;20021;-56
2023/09/29 04:48:25;;;;;;;614.22;121.97;;;;;;;;;;5027672;28;20209;-60
2023/09/29 04:50:50;;;;;;;609.05;121.53;;;;;;;;;;5044955;28;20029;-59
2023/09/29 04:53:15;;;;;;;610.47;123.30;;;;;;;;;;5042667;28;20017;-57
2023/09/29 04:55:41;;;;;;;615.47;123.28;;;;;;;;;;5046300;28;20458;-59
2023/09/29 04:58:08;;;;;;;610.88;121.20;;;;;;;;;;5044725;28;20358;-58
2023/09/29 05:00:34;;;;;;;614.28;124.68;;;;;;;;;;5045030;28;20531;-59
2023/09/29 05:02:59;;;;;;;411.23;85.97;;;;;;;;;;5042862;28;20025;-59
2023/09/29 05:05:24;;;;;;;611.47;123.93;;;;;;;;;;5045663;28;20476;-57
2023/09/29 05:07:50;;;;;;;612.70;122.60;;;;;;;;;;5043920;28;20025;-58
2023/09/29 05:10:15;;;;;;;617.55;123.75;;;;;;;;;;5044246;28;20068;-59
2023/09/29 05:12:41;;;;;;;616.13;123.65;;;;;;;;;;5043930;28;20036;-60
2023/09/29 05:15:07;;;;;;;611.53;123.43;;;;;;;;;;5044004;28;20033;-58
2023/09/29 05:17:32;;;;;;;609.67;123.43;;;;;;;;;;5044397;28;20040;-56
2023/09/29 05:19:58;;;;;;;617.33;124.43;;;;;;;;;;5046319;28;20693;-59
2023/09/29 05:22:23;;;;;;;612.20;122.50;;;;;;;;;;5044564;28;20028;-55
2023/09/29 05:24:49;;;;;;;607.35;124.28;;;;;;;;;;5044528;28;20021;-58
2023/09/29 05:27:14;;;;;;;604.85;122.47;;;;;;;;;;5044100;28;20052;-58
2023/09/29 05:29:40;;;;;;;424.55;87.72;;;;;;;;;;5045754;28;20059;-56
2023/09/29 05:32:05;;;;;;;611.75;125.00;;;;;;;;;;5042924;28;20378;-57
2023/09/29 05:34:30;;;;;;;610.25;123.28;;;;;;;;;;5045653;28;20086;-58
2023/09/29 05:36:56;;;;;;;611.90;124.72;;;;;;;;;;5043825;28;20029;-60
2023/09/29 05:39:22;;;;;;;431.17;94.57;;;;;;;;;;5026491;28;20780;-59
2023/09/29 05:41:48;;;;;;;616.97;126.18;;;;;;;;;;5034953;28;20106;-60
2023/09/29 05:44:13;;;;;;;626.33;130.48;;;;;;;;;;5043066;28;20690;-57
2023/09/29 05:46:38;;;;;;;622.35;129.95;;;;;;;;;;5041995;28;20052;-61
2023/09/29 05:49:03;;;;;;;625.90;136.15;;;;;;;;;;5038008;28;20026;-61
2023/09/29 05:51:29;;;;;;;628.80;138.18;;;;;;;;;;5031809;28;20025;-58
2023/09/29 05:53:54;;;;;;;630.38;142.38;;;;;;;;;;5038900;28;20043;-61
2023/09/29 05:56:19;;;;;;;636.40;147.32;;;;;;;;;;5040269;28;20014;-57
2023/09/29 05:58:45;;;;;;;629.33;141.15;;;;;;;;;;5042056;28;20470;-59
2023/09/29 06:01:11;;;;;;;635.88;155.00;;;;;;;;;;5039492;28;20043;-59
2023/09/29 06:03:37;;;;;;;633.80;151.88;;;;;;;;;;5040966;28;20017;-57
2023/09/29 06:06:03;;;;;;;643.40;159.43;;;;;;;;;;5039773;28;20048;-57
2023/09/29 06:08:28;;;;;;;639.13;165.70;;;;;;;;;;5041793;28;20060;-56
2023/09/29 06:10:53;;;;;;;639.42;165.05;;;;;;;;;;5041983;28;20421;-59
2023/09/29 06:13:18;;;;;;;641.88;175.48;;;;;;;;;;5040088;28;20032;-52
2023/09/29 06:15:44;;;;;;;654.47;184.27;;;;;;;;;;5003570;28;20044;-59
2023/09/29 06:18:09;;;;;;;642.85;174.27;;;;;;;;;;5036629;28;20029;-59
2023/09/29 06:20:34;;;;;;;645.42;189.68;;;;;;;;;;5036398;28;20076;-54
2023/09/29 06:23:00;;;;;;;655.20;196.15;;;;;;;;;;4984683;28;20468;-58
2023/09/29 06:25:25;;;;;;;657.72;202.30;;;;;;;;;;5040756;28;20037;-59
2023/09/29 06:27:51;;;;;;;661.78;206.60;;;;;;;;;;5038198;28;20033;-57
2023/09/29 06:30:17;;;;;;;661.50;210.52;;;;;;;;;;5039461;28;20942;-60
2023/09/29 06:32:42;;;;;;;654.70;212.18;;;;;;;;;;5035529;28;20029;-58
2023/09/29 06:35:08;;;;;;;664.80;222.63;;;;;;;;;;5035156;28;20029;-56
2023/09/29 06:37:33;;;;;;;666.03;227.20;;;;;;;;;;5034422;28;20052;-55
2023/09/29 06:39:58;;;;;;;659.17;219.90;;;;;;;;;;5038917;28;20771;-58
2023/09/29 06:42:23;;;;;;;662.33;230.75;;;;;;;;;;5037830;28;20031;-57
2023/09/29 06:44:49;;;;;;;667.42;238.15;;;;;;;;;;4987984;28;20029;-57
2023/09/29 06:47:14;;;;;;;663.92;244.98;;;;;;;;;;5034440;28;20032;-58
2023/09/29 06:49:39;;;;;;;669.17;249.07;;;;;;;;;;5041348;28;20413;-59
2023/09/29 06:52:05;;;;;;;673.03;266.63;;;;;;;;;;5041123;28;20036;-56
2023/09/29 06:54:30;;;;;;;678.65;271.40;;;;;;;;;;5004395;28;20055;-58
2023/09/29 06:56:55;;;;;;;682.60;285.27;;;;;;;;;;5037294;28;20484;-57
2023/09/29 06:59:21;;;;;;;693.25;307.80;;;;;;;;;;5040744;28;20037;-57
2023/09/29 07:01:46;;;;;;;684.67;300.55;;;;;;;;;;5033940;28;20052;-58
2023/09/29 07:04:11;;;;;;;674.13;289.10;;;;;;;;;;5044517;28;20017;-55
2023/09/29 07:06:37;;;;;;;675.08;293.70;;;;;;;;;;4998472;28;20483;-58
2023/09/29 07:09:03;;;;;;;676.10;307.35;;;;;;;;;;5044263;28;20062;-58
2023/09/29 07:11:28;;;;;;;685.13;318.05;;;;;;;;;;5043069;28;20029;-54
2023/09/29 07:13:54;;;;;;;690.67;341.65;;;;;;;;;;5024260;28;20064;-59
2023/09/29 07:16:20;;;;;;;694.08;345.00;;;;;;;;;;5041970;28;20124;-54
2023/09/29 07:18:45;;;;;;;697.97;347.20;;;;;;;;;;5047678;28;20025;-59
2023/09/29 07:21:11;;;;;;;694.95;358.63;;;;;;;;;;5039117;28;20559;-58
2023/09/29 07:23:36;;;;;;;714.58;386.63;;;;;;;;;;5042512;28;20036;-56
2023/09/29 07:26:01;;;;;;;700.28;368.58;;;;;;;;;;5041125;28;20028;-58
2023/09/29 07:28:27;;;;;;;704.35;373.05;;;;;;;;;;5043239;28;20531;-58
2023/09/29 07:30:52;;;;;;;707.72;386.10;;;;;;;;;;5042163;28;20037;-57
2023/09/29 07:33:17;;;;;;;701.03;390.13;;;;;;;;;;5041027;28;20025;-57
2023/09/29 07:35:44;;;;;;;710.47;407.65;;;;;;;;;;5043406;28;20025;-58
2023/09/29 07:38:10;;;;;;;711.83;412.90;;;;;;;;;;5037891;28;20049;-57
2023/09/29 07:40:35;;;;;;;729.42;452.83;;;;;;;;;;5041774;28;20099;-56
2023/09/29 07:43:09;;;;;;;726.65;446.20;;;;;;;;;;5043109;28;20025;-55
2023/09/29 07:45:34;;;;;;;717.15;427.35;;;;;;;;;;5036059;28;20033;-53
2023/09/29 07:48:00;;;;;;;726.47;445.90;;;;;;;;;;5034093;28;20556;-57
2023/09/29 07:50:25;;;;;;;730.95;476.25;;;;;;;;;;5038496;28;20060;-59
2023/09/29 07:52:51;;;;;;;737.97;490.27;;;;;;;;;;5037188;28;20036;-57
2023/09/29 07:55:16;;;;;;;742.70;491.67;;;;;;;;;;5038836;28;20032;-58
2023/09/29 07:57:42;;;;;;;741.78;499.10;;;;;;;;;;5039980;28;20704;-58
2023/09/29 08:00:11;;;;;;;743.42;500.33;;;;;;;;;;5040987;28;20521;-57
2023/09/29 08:02:37;;;;;;;758.88;525.75;;;;;;;;;;5035182;28;20029;-55
2023/09/29 08:05:03;;;;;;;751.50;527.83;;;;;;;;;;5024325;28;20090;-57
2023/09/29 08:07:28;;;;;;;758.75;550.25;;;;;;;;;;5039221;28;20021;-57
2023/09/29 08:09:53;;;;;;;747.58;538.72;;;;;;;;;;5042768;28;20377;-55
2023/09/29 08:12:19;;;;;;;748.35;544.03;;;;;;;;;;5043986;28;20040;-58
2023/09/29 08:14:44;;;;;;;755.33;550.45;;;;;;;;;;5039215;28;20032;-54
2023/09/29 08:17:12;;;;;;;755.00;561.38;;;;;;;;;;5036441;28;20037;-53
2023/09/29 08:19:37;;;;;;;763.95;571.50;;;;;;;;;;5035935;28;20116;-55
2023/09/29 08:22:03;;;;;;;770.92;581.30;;;;;;;;;;5042843;28;20045;-57
2023/09/29 08:24:31;;;;;;;761.95;577.38;;;;;;;;;;5041776;28;20123;-58
2023/09/29 08:26:57;;;;;;;;;;;;;;;;;;5001903;28;20041;-56
2023/09/29 08:29:22;;;;;;;752.47;570.58;;;;;;;;;;5038536;28;19943;-54
2023/09/29 08:31:47;;;;;;;763.33;592.35;;;;;;;;;;5039453;28;20039;-56
2023/09/29 08:34:13;;;;;;;768.10;608.70;;;;;;;;;;5039248;28;20040;-55
2023/09/29 08:36:38;;;;;;;770.85;611.72;;;;;;;;;;5039532;28;20703;-57
2023/09/29 08:39:03;;;;;;;765.50;608.67;;;;;;;;;;5036077;28;20521;-56
2023/09/29 08:41:29;;;;;;;780.13;625.53;;;;;;;;;;5038685;28;20053;-55
2023/09/29 08:43:54;;;;;;;767.05;615.42;;;;;;;;;;5022303;28;20108;-54
2023/09/29 08:46:20;;;;;;;772.53;614.42;;;;;;;;;;5040399;28;20080;-56
2023/09/29 08:48:46;;;;;;;766.83;621.00;;;;;;;;;;5017555;28;20068;-57
2023/09/29 08:51:12;;;;;;;765.50;624.95;;;;;;;;;;5039119;28;20426;-52
2023/09/29 08:53:39;;;;;;;763.65;630.08;;;;;;;;;;5036557;28;20945;-56
2023/09/29 08:56:11;;;;;;;768.10;619.85;;;;;;;;;;5040026;28;20461;-56
2023/09/29 08:58:36;;;;;;;769.42;634.17;;;;;;;;;;5021239;28;20017;-54
2023/09/29 09:01:02;;;;;;;770.30;632.35;;;;;;;;;;5036284;28;20811;-54
2023/09/29 09:03:27;;;;;;;759.47;614.78;;;;;;;;;;5031151;28;20083;-56
2023/09/29 09:05:55;;;;;;;771.20;637.03;;;;;;;;;;5037994;28;20029;-55
2023/09/29 09:08:20;;;;;;;782.43;639.07;;;;;;;;;;5032809;28;20071;-53
2023/09/29 09:10:46;;;;;;;776.63;629.40;;;;;;;;;;5034357;28;20026;-52
2023/09/29 09:13:11;;;;;;;770.95;636.63;;;;;;;;;;4982742;28;20047;-54
2023/09/29 09:15:36;;;;;;;782.45;647.40;;;;;;;;;;5032053;28;20430;-49
2023/09/29 09:18:02;;;;;;;774.83;631.72;;;;;;;;;;5031348;28;20040;-52
2023/09/29 09:20:28;;;;;;;776.50;640.58;;;;;;;;;;5032008;28;20044;-56
2023/09/29 09:22:58;;;;;;;778.40;656.20;;;;;;;;;;5033213;28;20021;-54
2023/09/29 09:25:38;;;;;;;790.10;671.95;;;;;;;;;;5041501;28;20051;-54
2023/09/29 09:28:04;;;;;;;787.20;672.95;;;;;;;;;;5040407;28;20024;-51
2023/09/29 09:30:38;;;;;;;785.53;664.47;;;;;;;;;;5037388;28;20033;-52
2023/09/29 09:33:05;;;;;;;787.83;677.28;;;;;;;;;;5034718;28;20295;-56
2023/09/29 09:35:30;;;;;;;783.47;677.90;;;;;;;;;;5035360;28;20082;-53
2023/09/29 09:37:57;;;;;;;793.88;692.70;;;;;;;;;;5037951;28;20048;-54
2023/09/29 09:40:26;;;;;;;797.58;699.17;;;;;;;;;;5040040;28;20117;-56
2023/09/29 09:42:54;;;;;;;800.20;707.08;;;;;;;;;;5037357;28;20036;-59
2023/09/29 09:45:25;;;;;;;879.78;785.47;;;;;;;;;;5030469;28;20028;-59
2023/09/29 09:47:55;;;;;;;822.45;730.88;;;;;;;;;;5038142;28;20116;-57
2023/09/29 09:50:21;;;;;;;813.90;723.13;;;;;;;;;;5037578;28;20039;-58
2023/09/29 09:52:51;;;;;;;848.38;756.35;;;;;;;;;;5038991;28;20024;-54
2023/09/29 09:55:17;;;;;;;812.72;719.97;;;;;;;;;;5038330;28;20540;-56
2023/09/29 09:57:43;;;;;;;799.88;701.28;;;;;;;;;;5038817;28;20013;-57
2023/09/29 10:00:10;;;;;;;802.50;704.80;;;;;;;;;;5044851;28;20037;-57
2023/09/29 10:02:52;;;;;;;807.20;702.88;;;;;;;;;;5038936;28;20560;-58
2023/09/29 10:05:22;;;;;;;805.05;713.40;;;;;;;;;;5039379;28;20289;-58
2023/09/29 10:07:48;;;;;;;899.22;802.80;;;;;;;;;;5028604;28;20033;-58
2023/09/29 10:10:23;;;;;;;897.72;801.50;;;;;;;;;;5040296;28;20035;-55
2023/09/29 10:12:52;;;;;;;897.38;800.83;;;;;;;;;;4999669;28;20040;-57
2023/09/29 10:15:18;;;;;;;882.33;785.95;;;;;;;;;;5045257;28;20025;-54
2023/09/29 10:17:43;;;;;;;883.63;787.17;;;;;;;;;;5043893;28;20079;-60
2023/09/29 10:20:21;;;;;;;881.70;785.63;;;;;;;;;;5045374;28;20777;-55
2023/09/29 10:22:54;;;;;;;884.70;788.97;;;;;;;;;;5045212;28;20053;-54
2023/09/29 10:25:20;;;;;;;881.00;785.13;;;;;;;;;;5028635;28;20462;-59
2023/09/29 10:27:49;;;;;;;885.72;789.92;;;;;;;;;;5045056;28;20025;-56
2023/09/29 10:30:18;;;;;;;889.28;792.60;;;;;;;;;;5043307;28;20055;-58
2023/09/29 10:32:48;;;;;;;903.13;806.03;;;;;;;;;;5044399;28;20090;-57
2023/09/29 10:35:18;;;;;;;895.83;799.45;;;;;;;;;;5045067;28;20078;-57
2023/09/29 10:37:45;;;;;;;911.60;813.60;;;;;;;;;;5039664;28;20059;-59
2023/09/29 10:40:19;;;;;;;912.45;814.75;;;;;;;;;;5039927;28;20121;-57
2023/09/29 10:42:44;;;;;;;902.72;805.13;;;;;;;;;;5043230;28;20032;-59
2023/09/29 10:45:10;;;;;;;916.05;818.35;;;;;;;;;;5033349;28;20029;-57
2023/09/29 10:47:36;;;;;;;918.28;820.60;;;;;;;;;;5035966;28;20478;-58
2023/09/29 10:50:10;;;;;;;909.47;812.83;;;;;;;;;;5036203;28;20335;-60
2023/09/29 10:52:35;;;;;;;913.45;816.40;;;;;;;;;;5019173;28;20453;-54
2023/09/29 10:55:02;;;;;;;885.28;789.20;;;;;;;;;;5018984;28;20056;-57
2023/09/29 10:57:28;;;;;;;884.83;788.45;;;;;;;;;;5036059;28;21869;-53
2023/09/29 10:59:59;;;;;;;877.10;781.83;;;;;;;;;;5016652;28;20037;-57
2023/09/29 11:02:29;;;;;;;874.25;778.30;;;;;;;;;;5038507;28;20258;-58
2023/09/29 11:04:54;;;;;;;865.65;770.08;;;;;;;;;;5037619;28;20013;-54
2023/09/29 11:07:20;;;;;;;868.35;772.78;;;;;;;;;;5032600;28;20028;-60
2023/09/29 11:09:45;;;;;;;869.65;774.35;;;;;;;;;;5039376;28;20102;-61
2023/09/29 11:12:17;;;;;;;871.30;776.23;;;;;;;;;;5039529;28;20033;-60
2023/09/29 11:14:43;;;;;;;877.47;781.63;;;;;;;;;;5038005;28;20285;-65
2023/09/29 11:17:08;;;;;;;879.53;784.20;;;;;;;;;;5035147;28;20037;-57
2023/09/29 11:19:33;;;;;;;889.40;793.33;;;;;;;;;;5033255;28;20027;-61
2023/09/29 11:22:01;;;;;;;883.58;787.90;;;;;;;;;;5039315;28;20025;-59
2023/09/29 11:24:37;;;;;;;873.67;777.63;;;;;;;;;;5033689;28;20013;-57
2023/09/29 11:27:02;;;;;;;869.63;772.30;;;;;;;;;;5023257;28;20107;-59
2023/09/29 11:29:28;;;;;;;867.42;771.80;;;;;;;;;;5026883;28;20116;-61
2023/09/29 11:31:53;;;;;;;865.95;770.97;;;;;;;;;;5032302;28;20025;-61
2023/09/29 11:34:19;;;;;;;861.97;759.67;;;;;;;;;;5036247;28;20108;-57
2023/09/29 11:36:44;;;;;;;862.28;766.00;;;;;;;;;;5037119;28;20056;-60
2023/09/29 11:39:10;;;;;;;874.47;777.85;;;;;;;;;;5031812;28;20782;-58
2023/09/29 11:41:36;;;;;;;872.58;776.63;;;;;;;;;;5030464;28;20025;-61
2023/09/29 11:44:01;;;;;;;864.03;768.40;;;;;;;;;;5001119;28;20094;-60
2023/09/29 11:46:26;;;;;;;859.30;762.30;;;;;;;;;;5036185;28;20024;-61
2023/09/29 11:48:53;;;;;;;855.05;757.17;;;;;;;;;;5040814;28;20025;-61
2023/09/29 11:51:19;;;;;;;856.08;749.03;;;;;;;;;;5015581;28;20040;-60
2023/09/29 11:53:44;;;;;;;851.47;747.20;;;;;;;;;;5042262;28;20025;-57
2023/09/29 11:56:10;;;;;;;848.20;737.85;;;;;;;;;;5037146;28;21932;-59
2023/09/29 11:58:37;;;;;;;844.08;727.75;;;;;;;;;;5040476;28;20028;-56
2023/09/29 12:01:02;;;;;;;838.63;719.10;;;;;;;;;;5041378;28;20027;-57
2023/09/29 12:03:27;;;;;;;841.47;710.92;;;;;;;;;;5042314;28;20025;-57
2023/09/29 12:05:53;;;;;;;833.63;707.03;;;;;;;;;;5043672;28;20029;-58
2023/09/29 12:08:19;;;;;;;831.00;698.00;;;;;;;;;;5041118;28;20104;-58
2023/09/29 12:10:45;;;;;;;837.85;697.30;;;;;;;;;;5043476;28;20629;-58
2023/09/29 12:13:12;;;;;;;827.47;684.60;;;;;;;;;;5039285;28;20033;-63
2023/09/29 12:15:37;;;;;;;819.58;678.20;;;;;;;;;;5040210;28;20371;-59
2023/09/29 12:18:03;;;;;;;824.78;676.75;;;;;;;;;;5033271;28;20076;-60
2023/09/29 12:20:28;;;;;;;829.50;675.17;;;;;;;;;;4984389;28;20371;-61
2023/09/29 12:22:55;;;;;;;820.72;674.83;;;;;;;;;;5042831;28;20033;-58
2023/09/29 12:25:20;;;;;;;823.28;666.58;;;;;;;;;;5044282;28;20074;-57
2023/09/29 12:27:46;;;;;;;819.90;672.78;;;;;;;;;;5041434;28;20025;-59
2023/09/29 12:30:14;;;;;;;818.88;666.58;;;;;;;;;;5037250;28;20027;-58
2023/09/29 12:32:40;;;;;;;823.30;665.88;;;;;;;;;;5039987;28;20057;-62
2023/09/29 12:35:06;;;;;;;822.00;669.72;;;;;;;;;;5041835;28;20489;-60
2023/09/29 12:37:31;;;;;;;823.47;674.88;;;;;;;;;;5022508;28;20040;-62
2023/09/29 12:39:56;;;;;;;820.28;673.95;;;;;;;;;;5038902;28;20180;-62
2023/09/29 12:42:22;;;;;;;817.45;675.35;;;;;;;;;;5037066;28;20025;-62
2023/09/29 12:44:47;;;;;;;823.90;680.30;;;;;;;;;;5045465;28;20425;-61
2023/09/29 12:47:15;;;;;;;824.15;676.55;;;;;;;;;;5040611;28;20023;-58
2023/09/29 12:49:41;;;;;;;817.55;663.10;;;;;;;;;;5044011;28;20029;-62
2023/09/29 12:52:08;;;;;;;814.40;661.00;;;;;;;;;;5034683;28;20044;-62
2023/09/29 12:54:34;;;;;;;822.72;666.00;;;;;;;;;;5046544;28;20048;-61
2023/09/29 12:57:00;;;;;;;812.03;641.22;;;;;;;;;;5039326;28;20021;-59
2023/09/29 12:59:26;;;;;;;821.97;651.17;;;;;;;;;;5042660;28;20025;-57
2023/09/29 13:01:51;;;;;;;726.05;577.53;;;;;;;;;;5035403;28;20020;-60
2023/09/29 13:04:17;;;;;;;808.10;634.17;;;;;;;;;;5042160;28;20050;-57
2023/09/29 13:06:42;;;;;;;818.20;645.38;;;;;;;;;;5038575;28;20646;-55
2023/09/29 13:09:09;;;;;;;814.45;645.08;;;;;;;;;;5044853;28;20043;-59
2023/09/29 13:11:35;;;;;;;809.42;641.10;;;;;;;;;;5040252;28;20025;-60
2023/09/29 13:14:00;;;;;;;805.85;635.15;;;;;;;;;;5044187;28;20031;-56
2023/09/29 13:16:26;;;;;;;811.85;646.40;;;;;;;;;;5036211;28;20016;-59
2023/09/29 13:18:52;;;;;;;809.08;641.65;;;;;;;;;;5040112;28;20075;-64
2023/09/29 13:21:18;;;;;;;831.17;692.13;;;;;;;;;;5020360;28;20028;-62
2023/09/29 13:23:43;;;;;;;825.75;688.65;;;;;;;;;;5036207;28;20028;-59
2023/09/29 13:26:10;;;;;;;817.88;665.13;;;;;;;;;;5032528;28;20024;-55
2023/09/29 13:28:35;;;;;;;822.72;681.78;;;;;;;;;;5033627;28;20049;-59
2023/09/29 13:31:01;;;;;;;831.03;693.33;;;;;;;;;;5037328;28;20113;-57
2023/09/29 13:33:27;;;;;;;829.40;683.97;;;;;;;;;;5037470;28;20036;-56
2023/09/29 13:35:53;;;;;;;828.53;693.30;;;;;;;;;;5023172;28;20458;-60
2023/09/29 13:38:18;;;;;;;824.60;681.03;;;;;;;;;;5041279;28;20045;-58
2023/09/29 13:40:43;;;;;;;829.78;688.85;;;;;;;;;;5040918;28;20488;-59
2023/09/29 13:43:09;;;;;;;821.30;672.22;;;;;;;;;;5041305;28;20701;-61
2023/09/29 13:45:36;;;;;;;830.03;693.20;;;;;;;;;;5015879;28;20036;-56
2023/09/29 13:48:01;;;;;;;834.67;700.42;;;;;;;;;;5012988;28;20068;-61